sensor_id;sensor_type;location;lat;lon;timestamp;temperature;humidity
37408;DHT22;24866;50.248;8.252;2023-04-05T00:00:23;1.40;99.90
37408;DHT22;24866;50.248;8.252;2023-04-05T00:02:54;1.50;99.90
37408;DHT22;24866;50.248;8.252;2023-04-05T00:05:24;1.60;99.90
37408;DHT22;24866;50.248;8.252;2023-04-05T00:07:58;1.70;99.90
37408;DHT22;24866;50.248;8.252;2023-04-05T00:10:30;1.70;99.90
37408;DHT22;24866;50.248;8.252;2023-04-05T00:13:01;1.70;99.90
37408;DHT22;24866;50.248;8.252;2023-04-05T00:15:31;1.60;99.90
37408;DHT22;24866;50.248;8.252;2023-04-05T00:18:02;1.40;99.90
37408;DHT22;24866;50.248;8.252;2023-04-05T00:20:32;1.20;99.90
37408;DHT22;24866;50.248;8.252;2023-04-05T00:23:04;1.40;99.90
37408;DHT22;24866;50.248;8.252;2023-04-05T00:25:38;1.50;99.90
37408;DHT22;24866;50.248;8.252;2023-04-05T00:28:09;1.50;99.90
37408;DHT22;24866;50.248;8.252;2023-04-05T00:30:39;1.30;99.90
37408;DHT22;24866;50.248;8.252;2023-04-05T00:33:11;1.40;99.90
37408;DHT22;24866;50.248;8.252;2023-04-05T00:35:41;1.50;99.90
37408;DHT22;24866;50.248;8.252;2023-04-05T00:38:11;1.50;99.90
37408;DHT22;24866;50.248;8.252;2023-04-05T00:40:41;1.40;99.90
37408;DHT22;24866;50.248;8.252;2023-04-05T00:43:13;1.40;99.90
37408;DHT22;24866;50.248;8.252;2023-04-05T00:45:43;1.30;99.90
37408;DHT22;24866;50.248;8.252;2023-04-05T00:48:14;1.20;99.90
37408;DHT22;24866;50.248;8.252;2023-04-05T00:50:45;1.20;1.00
37408;DHT22;24866;50.248;8.252;2023-04-05T00:53:18;1.40;1.00
37408;DHT22;24866;50.248;8.252;2023-04-05T00:55:50;1.50;99.90
37408;DHT22;24866;50.248;8.252;2023-04-05T00:58:22;1.20;99.90
37408;DHT22;24866;50.248;8.252;2023-04-05T01:00:57;1.20;1.00
37408;DHT22;24866;50.248;8.252;2023-04-05T01:03:31;1.30;1.00
37408;DHT22;24866;50.248;8.252;2023-04-05T01:06:17;0.90;1.00
37408;DHT22;24866;50.248;8.252;2023-04-05T01:08:57;1.10;1.00
37408;DHT22;24866;50.248;8.252;2023-04-05T01:11:29;0.60;1.00
37408;DHT22;24866;50.248;8.252;2023-04-05T01:14:02;0.60;1.00
37408;DHT22;24866;50.248;8.252;2023-04-05T01:16:32;0.80;1.00
37408;DHT22;24866;50.248;8.252;2023-04-05T01:19:03;0.90;1.00
37408;DHT22;24866;50.248;8.252;2023-04-05T01:21:56;1.00;1.00
37408;DHT22;24866;50.248;8.252;2023-04-05T01:24:39;1.10;1.00
37408;DHT22;24866;50.248;8.252;2023-04-05T01:27:19;1.00;1.00
37408;DHT22;24866;50.248;8.252;2023-04-05T01:30:02;1.00;1.00
37408;DHT22;24866;50.248;8.252;2023-04-05T01:32:47;1.00;1.00
37408;DHT22;24866;50.248;8.252;2023-04-05T01:35:26;1.00;1.00
37408;DHT22;24866;50.248;8.252;2023-04-05T01:38:01;0.90;1.00
37408;DHT22;24866;50.248;8.252;2023-04-05T01:40:34;0.90;1.00
37408;DHT22;24866;50.248;8.252;2023-04-05T01:43:12;0.70;1.00
37408;DHT22;24866;50.248;8.252;2023-04-05T01:45:45;0.60;1.00
37408;DHT22;24866;50.248;8.252;2023-04-05T01:48:15;0.70;1.00
37408;DHT22;24866;50.248;8.252;2023-04-05T01:50:46;0.40;1.00
37408;DHT22;24866;50.248;8.252;2023-04-05T01:53:16;0.60;1.00
37408;DHT22;24866;50.248;8.252;2023-04-05T01:55:47;0.70;1.00
37408;DHT22;24866;50.248;8.252;2023-04-05T01:58:24;0.80;1.00
37408;DHT22;24866;50.248;8.252;2023-04-05T02:00:56;0.60;1.00
37408;DHT22;24866;50.248;8.252;2023-04-05T02:03:26;0.60;1.00
37408;DHT22;24866;50.248;8.252;2023-04-05T02:05:56;0.50;1.00
37408;DHT22;24866;50.248;8.252;2023-04-05T02:08:26;0.40;1.00
37408;DHT22;24866;50.248;8.252;2023-04-05T02:10:56;0.30;1.00
37408;DHT22;24866;50.248;8.252;2023-04-05T02:13:26;0.10;1.00
37408;DHT22;24866;50.248;8.252;2023-04-05T02:15:58;0.30;1.00
37408;DHT22;24866;50.248;8.252;2023-04-05T02:18:28;0.40;1.00
37408;DHT22;24866;50.248;8.252;2023-04-05T02:21:02;0.40;1.00
37408;DHT22;24866;50.248;8.252;2023-04-05T02:23:33;0.40;1.00
37408;DHT22;24866;50.248;8.252;2023-04-05T02:26:03;0.40;1.00
37408;DHT22;24866;50.248;8.252;2023-04-05T02:28:33;0.40;1.00
37408;DHT22;24866;50.248;8.252;2023-04-05T02:31:09;0.10;1.00
37408;DHT22;24866;50.248;8.252;2023-04-05T02:33:40;0.10;1.00
37408;DHT22;24866;50.248;8.252;2023-04-05T02:36:11;0.10;1.00
37408;DHT22;24866;50.248;8.252;2023-04-05T02:38:42;0.30;1.00
37408;DHT22;24866;50.248;8.252;2023-04-05T02:41:12;0.30;1.00
37408;DHT22;24866;50.248;8.252;2023-04-05T02:43:42;0.20;1.00
37408;DHT22;24866;50.248;8.252;2023-04-05T02:46:13;0.00;1.00
37408;DHT22;24866;50.248;8.252;2023-04-05T02:48:44;0.20;1.00
37408;DHT22;24866;50.248;8.252;2023-04-05T02:51:14;0.00;1.00
37408;DHT22;24866;50.248;8.252;2023-04-05T02:53:44;0.00;1.00
37408;DHT22;24866;50.248;8.252;2023-04-05T02:56:15;-0.10;1.00
37408;DHT22;24866;50.248;8.252;2023-04-05T02:58:45;0.00;1.00
37408;DHT22;24866;50.248;8.252;2023-04-05T03:01:18;-0.10;1.00
37408;DHT22;24866;50.248;8.252;2023-04-05T03:03:51;-0.10;1.00
37408;DHT22;24866;50.248;8.252;2023-04-05T03:06:25;0.10;1.00
37408;DHT22;24866;50.248;8.252;2023-04-05T03:08:55;0.20;1.00
37408;DHT22;24866;50.248;8.252;2023-04-05T03:11:25;0.20;1.00
37408;DHT22;24866;50.248;8.252;2023-04-05T03:13:55;0.00;1.00
37408;DHT22;24866;50.248;8.252;2023-04-05T03:16:27;0.00;1.00
37408;DHT22;24866;50.248;8.252;2023-04-05T03:18:57;0.00;1.00
37408;DHT22;24866;50.248;8.252;2023-04-05T03:21:28;-0.10;1.00
37408;DHT22;24866;50.248;8.252;2023-04-05T03:23:58;0.00;1.00
37408;DHT22;24866;50.248;8.252;2023-04-05T03:26:30;0.00;1.00
37408;DHT22;24866;50.248;8.252;2023-04-05T03:29:01;-0.20;1.00
37408;DHT22;24866;50.248;8.252;2023-04-05T03:31:36;-0.40;1.00
37408;DHT22;24866;50.248;8.252;2023-04-05T03:34:14;-0.60;1.00
37408;DHT22;24866;50.248;8.252;2023-04-05T03:36:45;-0.50;1.00
37408;DHT22;24866;50.248;8.252;2023-04-05T03:39:15;-0.50;1.00
37408;DHT22;24866;50.248;8.252;2023-04-05T03:41:45;-0.30;50.40
37408;DHT22;24866;50.248;8.252;2023-04-05T03:44:15;-0.40;95.30
37408;DHT22;24866;50.248;8.252;2023-04-05T03:46:47;-0.30;64.70
37408;DHT22;24866;50.248;8.252;2023-04-05T03:49:17;-0.50;60.30
37408;DHT22;24866;50.248;8.252;2023-04-05T03:51:48;-0.30;99.90
37408;DHT22;24866;50.248;8.252;2023-04-05T03:54:19;-0.30;1.00
37408;DHT22;24866;50.248;8.252;2023-04-05T03:56:50;-0.30;1.00
37408;DHT22;24866;50.248;8.252;2023-04-05T03:59:21;-0.40;1.00
37408;DHT22;24866;50.248;8.252;2023-04-05T04:01:52;-0.40;1.00
37408;DHT22;24866;50.248;8.252;2023-04-05T04:04:23;-0.40;1.00
37408;DHT22;24866;50.248;8.252;2023-04-05T04:06:54;-0.50;1.00
37408;DHT22;24866;50.248;8.252;2023-04-05T04:09:24;-0.50;11.80
37408;DHT22;24866;50.248;8.252;2023-04-05T04:11:56;-0.50;1.00
37408;DHT22;24866;50.248;8.252;2023-04-05T04:14:27;-0.50;1.00
37408;DHT22;24866;50.248;8.252;2023-04-05T04:16:58;-0.50;1.00
37408;DHT22;24866;50.248;8.252;2023-04-05T04:19:29;-0.50;1.00
37408;DHT22;24866;50.248;8.252;2023-04-05T04:21:59;-0.50;1.00
37408;DHT22;24866;50.248;8.252;2023-04-05T04:24:30;-0.60;1.00
37408;DHT22;24866;50.248;8.252;2023-04-05T04:27:00;-0.80;14.00
37408;DHT22;24866;50.248;8.252;2023-04-05T04:29:35;-0.80;99.90
37408;DHT22;24866;50.248;8.252;2023-04-05T04:32:07;-0.70;65.90
37408;DHT22;24866;50.248;8.252;2023-04-05T04:34:38;-0.70;1.00
37408;DHT22;24866;50.248;8.252;2023-04-05T04:37:13;-1.10;2.30
37408;DHT22;24866;50.248;8.252;2023-04-05T04:39:46;-0.90;22.30
37408;DHT22;24866;50.248;8.252;2023-04-05T04:42:16;-0.90;22.20
37408;DHT22;24866;50.248;8.252;2023-04-05T04:44:47;-1.00;60.80
37408;DHT22;24866;50.248;8.252;2023-04-05T04:47:18;-1.10;99.90
37408;DHT22;24866;50.248;8.252;2023-04-05T04:49:49;-1.00;99.90
37408;DHT22;24866;50.248;8.252;2023-04-05T04:52:19;-0.80;99.90
37408;DHT22;24866;50.248;8.252;2023-04-05T04:54:49;-0.90;99.90
37408;DHT22;24866;50.248;8.252;2023-04-05T04:57:19;-0.80;99.90
37408;DHT22;24866;50.248;8.252;2023-04-05T04:59:49;-0.80;99.90
37408;DHT22;24866;50.248;8.252;2023-04-05T05:02:24;-0.90;99.90
37408;DHT22;24866;50.248;8.252;2023-04-05T05:04:54;-1.00;99.90
37408;DHT22;24866;50.248;8.252;2023-04-05T05:07:24;-1.20;99.90
37408;DHT22;24866;50.248;8.252;2023-04-05T05:09:54;-1.20;99.90
37408;DHT22;24866;50.248;8.252;2023-04-05T05:12:24;-1.20;99.90
37408;DHT22;24866;50.248;8.252;2023-04-05T05:14:55;-1.20;99.90
37408;DHT22;24866;50.248;8.252;2023-04-05T05:17:26;-1.30;99.90
37408;DHT22;24866;50.248;8.252;2023-04-05T05:19:56;-1.30;99.90
37408;DHT22;24866;50.248;8.252;2023-04-05T05:22:27;-1.40;1.00
37408;DHT22;24866;50.248;8.252;2023-04-05T05:24:57;-1.20;1.00
37408;DHT22;24866;50.248;8.252;2023-04-05T05:27:27;-1.10;1.00
37408;DHT22;24866;50.248;8.252;2023-04-05T05:29:57;-1.00;1.00
37408;DHT22;24866;50.248;8.252;2023-04-05T05:32:29;-1.00;1.00
37408;DHT22;24866;50.248;8.252;2023-04-05T05:34:59;-1.00;1.00
37408;DHT22;24866;50.248;8.252;2023-04-05T05:37:30;-1.00;1.00
37408;DHT22;24866;50.248;8.252;2023-04-05T05:40:00;-0.90;1.00
37408;DHT22;24866;50.248;8.252;2023-04-05T05:42:30;-0.90;1.00
37408;DHT22;24866;50.248;8.252;2023-04-05T05:45:02;-0.80;1.00
37408;DHT22;24866;50.248;8.252;2023-04-05T05:47:34;-0.70;1.00
37408;DHT22;24866;50.248;8.252;2023-04-05T05:50:05;-0.70;1.00
37408;DHT22;24866;50.248;8.252;2023-04-05T05:52:36;-0.70;1.00
37408;DHT22;24866;50.248;8.252;2023-04-05T05:55:07;-0.80;1.00
37408;DHT22;24866;50.248;8.252;2023-04-05T05:57:37;-0.80;1.00
37408;DHT22;24866;50.248;8.252;2023-04-05T06:00:08;-0.60;1.00
37408;DHT22;24866;50.248;8.252;2023-04-05T06:02:40;-0.70;1.00
37408;DHT22;24866;50.248;8.252;2023-04-05T06:05:10;-0.60;1.00
37408;DHT22;24866;50.248;8.252;2023-04-05T06:07:40;-0.40;1.00
37408;DHT22;24866;50.248;8.252;2023-04-05T06:10:10;-0.30;1.00
37408;DHT22;24866;50.248;8.252;2023-04-05T06:12:41;-0.20;1.00
37408;DHT22;24866;50.248;8.252;2023-04-05T06:15:11;-0.30;1.00
37408;DHT22;24866;50.248;8.252;2023-04-05T06:17:42;-0.20;1.00
37408;DHT22;24866;50.248;8.252;2023-04-05T06:20:13;0.00;16.50
37408;DHT22;24866;50.248;8.252;2023-04-05T06:22:43;0.00;25.70
37408;DHT22;24866;50.248;8.252;2023-04-05T06:25:13;-0.20;99.90
37408;DHT22;24866;50.248;8.252;2023-04-05T06:27:43;-0.10;1.00
37408;DHT22;24866;50.248;8.252;2023-04-05T06:30:14;0.00;1.00
37408;DHT22;24866;50.248;8.252;2023-04-05T06:32:46;-0.10;1.00
37408;DHT22;24866;50.248;8.252;2023-04-05T06:35:22;0.00;34.80
37408;DHT22;24866;50.248;8.252;2023-04-05T06:37:52;0.10;99.90
37408;DHT22;24866;50.248;8.252;2023-04-05T06:40:22;0.30;99.90
37408;DHT22;24866;50.248;8.252;2023-04-05T06:42:53;0.40;99.90
37408;DHT22;24866;50.248;8.252;2023-04-05T06:45:23;0.60;99.90
37408;DHT22;24866;50.248;8.252;2023-04-05T06:47:55;0.60;99.90
37408;DHT22;24866;50.248;8.252;2023-04-05T06:50:25;0.80;99.90
37408;DHT22;24866;50.248;8.252;2023-04-05T06:52:55;0.90;99.90
37408;DHT22;24866;50.248;8.252;2023-04-05T06:55:27;1.10;99.90
37408;DHT22;24866;50.248;8.252;2023-04-05T06:57:57;1.20;39.00
37408;DHT22;24866;50.248;8.252;2023-04-05T07:00:27;1.20;1.00
37408;DHT22;24866;50.248;8.252;2023-04-05T07:02:59;1.30;1.00
37408;DHT22;24866;50.248;8.252;2023-04-05T07:05:29;1.40;1.00
37408;DHT22;24866;50.248;8.252;2023-04-05T07:08:00;1.50;1.00
37408;DHT22;24866;50.248;8.252;2023-04-05T07:10:30;1.60;99.90
37408;DHT22;24866;50.248;8.252;2023-04-05T07:13:01;1.70;99.90
37408;DHT22;24866;50.248;8.252;2023-04-05T07:15:31;1.90;34.80
37408;DHT22;24866;50.248;8.252;2023-04-05T07:18:07;2.00;1.00
37408;DHT22;24866;50.248;8.252;2023-04-05T07:20:37;2.20;1.00
37408;DHT22;24866;50.248;8.252;2023-04-05T07:23:08;2.40;1.00
37408;DHT22;24866;50.248;8.252;2023-04-05T07:25:39;2.40;99.90
37408;DHT22;24866;50.248;8.252;2023-04-05T07:28:09;2.40;99.90
37408;DHT22;24866;50.248;8.252;2023-04-05T07:30:40;2.60;99.90
37408;DHT22;24866;50.248;8.252;2023-04-05T07:33:12;2.70;99.90
37408;DHT22;24866;50.248;8.252;2023-04-05T07:35:42;2.90;99.90
37408;DHT22;24866;50.248;8.252;2023-04-05T07:38:12;3.00;99.90
37408;DHT22;24866;50.248;8.252;2023-04-05T07:40:42;3.20;99.90
37408;DHT22;24866;50.248;8.252;2023-04-05T07:43:12;3.40;99.90
37408;DHT22;24866;50.248;8.252;2023-04-05T07:45:42;3.50;99.90
37408;DHT22;24866;50.248;8.252;2023-04-05T07:48:14;3.60;99.90
37408;DHT22;24866;50.248;8.252;2023-04-05T07:50:45;3.80;99.90
37408;DHT22;24866;50.248;8.252;2023-04-05T07:53:16;3.60;99.90
37408;DHT22;24866;50.248;8.252;2023-04-05T07:55:46;3.60;99.90
37408;DHT22;24866;50.248;8.252;2023-04-05T07:58:16;4.20;99.90
37408;DHT22;24866;50.248;8.252;2023-04-05T08:00:46;4.50;99.90
37408;DHT22;24866;50.248;8.252;2023-04-05T08:03:18;4.60;99.90
37408;DHT22;24866;50.248;8.252;2023-04-05T08:05:48;4.30;99.90
37408;DHT22;24866;50.248;8.252;2023-04-05T08:08:18;4.50;99.90
37408;DHT22;24866;50.248;8.252;2023-04-05T08:10:48;5.00;1.00
37408;DHT22;24866;50.248;8.252;2023-04-05T08:13:18;4.70;99.90
37408;DHT22;24866;50.248;8.252;2023-04-05T08:15:48;4.90;99.90
37408;DHT22;24866;50.248;8.252;2023-04-05T08:18:19;5.10;99.90
37408;DHT22;24866;50.248;8.252;2023-04-05T08:20:50;5.10;99.90
37408;DHT22;24866;50.248;8.252;2023-04-05T08:23:20;5.20;1.00
37408;DHT22;24866;50.248;8.252;2023-04-05T08:25:50;5.70;1.00
37408;DHT22;24866;50.248;8.252;2023-04-05T08:28:20;5.90;1.00
37408;DHT22;24866;50.248;8.252;2023-04-05T08:30:52;5.80;1.00
37408;DHT22;24866;50.248;8.252;2023-04-05T08:33:24;5.70;1.00
37408;DHT22;24866;50.248;8.252;2023-04-05T08:36:03;6.10;1.00
37408;DHT22;24866;50.248;8.252;2023-04-05T08:38:33;6.20;1.00
37408;DHT22;24866;50.248;8.252;2023-04-05T08:41:12;6.20;1.00
37408;DHT22;24866;50.248;8.252;2023-04-05T08:43:54;6.80;1.00
37408;DHT22;24866;50.248;8.252;2023-04-05T08:46:25;6.80;1.00
37408;DHT22;24866;50.248;8.252;2023-04-05T08:48:57;6.50;1.00
37408;DHT22;24866;50.248;8.252;2023-04-05T08:51:28;7.00;1.00
37408;DHT22;24866;50.248;8.252;2023-04-05T08:53:59;7.10;1.00
37408;DHT22;24866;50.248;8.252;2023-04-05T08:56:32;7.20;1.00
37408;DHT22;24866;50.248;8.252;2023-04-05T08:59:03;7.00;1.00
37408;DHT22;24866;50.248;8.252;2023-04-05T09:01:36;7.00;1.00
37408;DHT22;24866;50.248;8.252;2023-04-05T09:04:13;7.60;1.00
37408;DHT22;24866;50.248;8.252;2023-04-05T09:06:44;8.10;1.00
37408;DHT22;24866;50.248;8.252;2023-04-05T09:09:17;8.50;1.00
37408;DHT22;24866;50.248;8.252;2023-04-05T09:11:49;7.60;1.00
37408;DHT22;24866;50.248;8.252;2023-04-05T09:14:20;7.70;1.00
37408;DHT22;24866;50.248;8.252;2023-04-05T09:16:50;7.60;1.00
37408;DHT22;24866;50.248;8.252;2023-04-05T09:19:22;8.30;1.00
37408;DHT22;24866;50.248;8.252;2023-04-05T09:22:02;8.50;1.00
37408;DHT22;24866;50.248;8.252;2023-04-05T09:24:34;8.10;1.00
37408;DHT22;24866;50.248;8.252;2023-04-05T09:27:06;8.60;1.00
37408;DHT22;24866;50.248;8.252;2023-04-05T09:29:37;8.60;1.00
37408;DHT22;24866;50.248;8.252;2023-04-05T09:32:09;8.60;1.00
37408;DHT22;24866;50.248;8.252;2023-04-05T09:34:41;8.50;1.00
37408;DHT22;24866;50.248;8.252;2023-04-05T09:37:13;8.70;1.00
37408;DHT22;24866;50.248;8.252;2023-04-05T09:39:43;8.70;1.00
37408;DHT22;24866;50.248;8.252;2023-04-05T09:42:15;9.20;1.00
37408;DHT22;24866;50.248;8.252;2023-04-05T09:44:50;8.50;1.00
37408;DHT22;24866;50.248;8.252;2023-04-05T09:47:22;8.60;1.00
37408;DHT22;24866;50.248;8.252;2023-04-05T09:49:54;8.70;1.00
37408;DHT22;24866;50.248;8.252;2023-04-05T09:52:25;9.30;1.00
37408;DHT22;24866;50.248;8.252;2023-04-05T09:54:59;8.60;99.90
37408;DHT22;24866;50.248;8.252;2023-04-05T09:57:34;8.80;99.90
37408;DHT22;24866;50.248;8.252;2023-04-05T10:00:16;8.10;99.90
37408;DHT22;24866;50.248;8.252;2023-04-05T10:02:51;8.80;99.90
37408;DHT22;24866;50.248;8.252;2023-04-05T10:05:25;9.40;99.90
37408;DHT22;24866;50.248;8.252;2023-04-05T10:07:56;8.80;99.90
37408;DHT22;24866;50.248;8.252;2023-04-05T10:10:26;8.90;99.90
37408;DHT22;24866;50.248;8.252;2023-04-05T10:12:58;9.20;99.90
37408;DHT22;24866;50.248;8.252;2023-04-05T10:15:30;9.80;99.90
37408;DHT22;24866;50.248;8.252;2023-04-05T10:18:03;9.90;99.90
37408;DHT22;24866;50.248;8.252;2023-04-05T10:20:42;10.10;99.90
37408;DHT22;24866;50.248;8.252;2023-04-05T10:23:21;10.00;99.90
37408;DHT22;24866;50.248;8.252;2023-04-05T10:25:56;9.10;99.90
37408;DHT22;24866;50.248;8.252;2023-04-05T10:28:31;9.10;99.90
37408;DHT22;24866;50.248;8.252;2023-04-05T10:31:10;9.40;99.90
37408;DHT22;24866;50.248;8.252;2023-04-05T10:33:43;9.60;99.90
37408;DHT22;24866;50.248;8.252;2023-04-05T10:36:24;10.10;99.90
37408;DHT22;24866;50.248;8.252;2023-04-05T10:39:01;9.80;99.90
37408;DHT22;24866;50.248;8.252;2023-04-05T10:41:35;8.90;99.90
37408;DHT22;24866;50.248;8.252;2023-04-05T10:44:08;9.30;99.90
37408;DHT22;24866;50.248;8.252;2023-04-05T10:46:40;9.30;99.90
37408;DHT22;24866;50.248;8.252;2023-04-05T10:49:15;9.90;99.90
37408;DHT22;24866;50.248;8.252;2023-04-05T10:51:49;10.20;99.90
37408;DHT22;24866;50.248;8.252;2023-04-05T10:54:20;10.20;99.90
37408;DHT22;24866;50.248;8.252;2023-04-05T10:56:51;10.10;99.90
37408;DHT22;24866;50.248;8.252;2023-04-05T10:59:21;10.00;99.90
37408;DHT22;24866;50.248;8.252;2023-04-05T11:01:52;10.50;99.90
37408;DHT22;24866;50.248;8.252;2023-04-05T11:04:22;10.80;99.90
37408;DHT22;24866;50.248;8.252;2023-04-05T11:07:14;10.50;99.90
37408;DHT22;24866;50.248;8.252;2023-04-05T11:09:51;10.40;99.90
37408;DHT22;24866;50.248;8.252;2023-04-05T11:15:28;10.30;99.90
37408;DHT22;24866;50.248;8.252;2023-04-05T11:18:04;11.40;99.90
37408;DHT22;24866;50.248;8.252;2023-04-05T11:20:42;10.90;99.90
37408;DHT22;24866;50.248;8.252;2023-04-05T11:23:15;10.30;99.90
37408;DHT22;24866;50.248;8.252;2023-04-05T11:25:49;11.40;99.90
37408;DHT22;24866;50.248;8.252;2023-04-05T11:28:24;11.90;99.90
37408;DHT22;24866;50.248;8.252;2023-04-05T11:30:54;12.30;99.90
37408;DHT22;24866;50.248;8.252;2023-04-05T11:33:55;11.10;99.90
37408;DHT22;24866;50.248;8.252;2023-04-05T11:36:34;11.60;99.90
37408;DHT22;24866;50.248;8.252;2023-04-05T11:39:25;11.00;99.90
37408;DHT22;24866;50.248;8.252;2023-04-05T11:41:59;11.90;99.90
37408;DHT22;24866;50.248;8.252;2023-04-05T11:44:40;12.20;99.90
37408;DHT22;24866;50.248;8.252;2023-04-05T11:47:10;12.60;99.90
37408;DHT22;24866;50.248;8.252;2023-04-05T11:49:40;12.70;99.90
37408;DHT22;24866;50.248;8.252;2023-04-05T11:52:13;12.50;99.90
37408;DHT22;24866;50.248;8.252;2023-04-05T11:54:44;12.40;99.90
37408;DHT22;24866;50.248;8.252;2023-04-05T11:57:18;12.90;99.90
37408;DHT22;24866;50.248;8.252;2023-04-05T11:59:49;11.90;58.60
37408;DHT22;24866;50.248;8.252;2023-04-05T12:02:20;12.20;99.90
37408;DHT22;24866;50.248;8.252;2023-04-05T12:04:54;12.20;64.30
37408;DHT22;24866;50.248;8.252;2023-04-05T12:07:26;12.20;48.60
37408;DHT22;24866;50.248;8.252;2023-04-05T12:10:05;12.60;86.50
37408;DHT22;24866;50.248;8.252;2023-04-05T12:12:38;13.50;99.90
37408;DHT22;24866;50.248;8.252;2023-04-05T12:15:10;13.40;99.90
37408;DHT22;24866;50.248;8.252;2023-04-05T12:17:44;12.40;1.00
37408;DHT22;24866;50.248;8.252;2023-04-05T12:20:16;12.40;1.00
37408;DHT22;24866;50.248;8.252;2023-04-05T12:22:48;12.10;1.00
37408;DHT22;24866;50.248;8.252;2023-04-05T12:25:20;11.60;1.00
37408;DHT22;24866;50.248;8.252;2023-04-05T12:27:52;11.30;1.00
37408;DHT22;24866;50.248;8.252;2023-04-05T12:30:23;11.40;1.00
37408;DHT22;24866;50.248;8.252;2023-04-05T12:32:54;11.50;1.00
37408;DHT22;24866;50.248;8.252;2023-04-05T12:35:28;11.90;1.00
37408;DHT22;24866;50.248;8.252;2023-04-05T12:38:03;11.20;1.00
37408;DHT22;24866;50.248;8.252;2023-04-05T12:40:36;10.30;1.00
37408;DHT22;24866;50.248;8.252;2023-04-05T12:43:07;10.80;1.00
37408;DHT22;24866;50.248;8.252;2023-04-05T12:45:38;11.90;1.00
37408;DHT22;24866;50.248;8.252;2023-04-05T12:48:12;12.00;1.00
37408;DHT22;24866;50.248;8.252;2023-04-05T12:50:44;12.20;1.00
37408;DHT22;24866;50.248;8.252;2023-04-05T12:53:19;13.00;1.00
37408;DHT22;24866;50.248;8.252;2023-04-05T12:55:53;13.10;1.00
37408;DHT22;24866;50.248;8.252;2023-04-05T12:58:32;12.70;1.00
37408;DHT22;24866;50.248;8.252;2023-04-05T13:01:03;12.70;1.00
37408;DHT22;24866;50.248;8.252;2023-04-05T13:03:33;12.20;1.00
37408;DHT22;24866;50.248;8.252;2023-04-05T13:06:03;13.10;1.00
37408;DHT22;24866;50.248;8.252;2023-04-05T13:08:34;13.30;1.00
37408;DHT22;24866;50.248;8.252;2023-04-05T13:11:06;13.70;1.00
37408;DHT22;24866;50.248;8.252;2023-04-05T13:13:37;13.00;1.00
37408;DHT22;24866;50.248;8.252;2023-04-05T13:16:07;13.40;1.00
37408;DHT22;24866;50.248;8.252;2023-04-05T13:18:37;13.30;1.00
37408;DHT22;24866;50.248;8.252;2023-04-05T13:21:07;13.30;1.00
37408;DHT22;24866;50.248;8.252;2023-04-05T13:23:38;13.60;1.00
37408;DHT22;24866;50.248;8.252;2023-04-05T13:26:10;13.50;1.00
37408;DHT22;24866;50.248;8.252;2023-04-05T13:28:40;13.70;1.00
37408;DHT22;24866;50.248;8.252;2023-04-05T13:31:10;13.50;1.00
37408;DHT22;24866;50.248;8.252;2023-04-05T13:33:40;13.40;1.00
37408;DHT22;24866;50.248;8.252;2023-04-05T13:36:10;13.50;1.00
37408;DHT22;24866;50.248;8.252;2023-04-05T13:38:40;13.60;1.00
37408;DHT22;24866;50.248;8.252;2023-04-05T13:41:12;14.00;1.00
37408;DHT22;24866;50.248;8.252;2023-04-05T13:43:43;14.00;1.00
37408;DHT22;24866;50.248;8.252;2023-04-05T13:46:13;14.30;1.00
37408;DHT22;24866;50.248;8.252;2023-04-05T13:48:45;14.30;1.00
37408;DHT22;24866;50.248;8.252;2023-04-05T13:51:15;13.80;1.00
37408;DHT22;24866;50.248;8.252;2023-04-05T13:53:45;14.40;1.00
37408;DHT22;24866;50.248;8.252;2023-04-05T13:56:17;14.10;1.00
37408;DHT22;24866;50.248;8.252;2023-04-05T13:58:47;13.70;1.00
37408;DHT22;24866;50.248;8.252;2023-04-05T14:01:17;13.80;1.00
37408;DHT22;24866;50.248;8.252;2023-04-05T14:03:47;14.30;1.00
37408;DHT22;24866;50.248;8.252;2023-04-05T14:06:17;13.90;1.00
37408;DHT22;24866;50.248;8.252;2023-04-05T14:08:47;14.20;1.00
37408;DHT22;24866;50.248;8.252;2023-04-05T14:11:24;14.00;1.00
37408;DHT22;24866;50.248;8.252;2023-04-05T14:13:54;13.60;1.00
37408;DHT22;24866;50.248;8.252;2023-04-05T14:16:24;13.70;1.00
37408;DHT22;24866;50.248;8.252;2023-04-05T14:18:54;13.50;99.90
37408;DHT22;24866;50.248;8.252;2023-04-05T14:21:25;13.60;99.90
37408;DHT22;24866;50.248;8.252;2023-04-05T14:23:55;13.70;99.90
37408;DHT22;24866;50.248;8.252;2023-04-05T14:26:27;13.80;99.90
37408;DHT22;24866;50.248;8.252;2023-04-05T14:28:57;12.90;99.90
37408;DHT22;24866;50.248;8.252;2023-04-05T14:31:27;13.40;99.90
37408;DHT22;24866;50.248;8.252;2023-04-05T14:33:58;13.30;99.90
37408;DHT22;24866;50.248;8.252;2023-04-05T14:36:28;13.30;99.90
37408;DHT22;24866;50.248;8.252;2023-04-05T14:39:00;13.60;99.90
37408;DHT22;24866;50.248;8.252;2023-04-05T14:41:32;12.70;99.90
37408;DHT22;24866;50.248;8.252;2023-04-05T14:44:02;12.50;99.90
37408;DHT22;24866;50.248;8.252;2023-04-05T14:46:32;12.80;99.90
37408;DHT22;24866;50.248;8.252;2023-04-05T14:49:02;13.30;99.90
37408;DHT22;24866;50.248;8.252;2023-04-05T14:51:32;13.50;99.90
37408;DHT22;24866;50.248;8.252;2023-04-05T14:54:04;13.60;99.90
37408;DHT22;24866;50.248;8.252;2023-04-05T14:56:36;13.20;99.90
37408;DHT22;24866;50.248;8.252;2023-04-05T14:59:06;13.30;99.90
37408;DHT22;24866;50.248;8.252;2023-04-05T15:01:36;13.80;99.90
37408;DHT22;24866;50.248;8.252;2023-04-05T15:04:09;13.80;99.90
37408;DHT22;24866;50.248;8.252;2023-04-05T15:06:39;14.50;99.90
37408;DHT22;24866;50.248;8.252;2023-04-05T15:09:11;12.80;99.90
37408;DHT22;24866;50.248;8.252;2023-04-05T15:11:43;12.40;99.90
37408;DHT22;24866;50.248;8.252;2023-04-05T15:14:13;12.90;99.90
37408;DHT22;24866;50.248;8.252;2023-04-05T15:16:43;13.10;99.90
37408;DHT22;24866;50.248;8.252;2023-04-05T15:19:13;13.70;99.90
37408;DHT22;24866;50.248;8.252;2023-04-05T15:21:44;13.50;99.90
37408;DHT22;24866;50.248;8.252;2023-04-05T15:24:14;13.50;99.90
37408;DHT22;24866;50.248;8.252;2023-04-05T15:26:46;13.20;99.90
37408;DHT22;24866;50.248;8.252;2023-04-05T15:29:16;13.60;99.90
37408;DHT22;24866;50.248;8.252;2023-04-05T15:31:46;13.70;99.90
37408;DHT22;24866;50.248;8.252;2023-04-05T15:34:16;13.80;99.90
37408;DHT22;24866;50.248;8.252;2023-04-05T15:36:46;13.50;99.90
37408;DHT22;24866;50.248;8.252;2023-04-05T15:39:17;13.00;99.70
37408;DHT22;24866;50.248;8.252;2023-04-05T15:41:51;13.00;93.10
37408;DHT22;24866;50.248;8.252;2023-04-05T15:44:21;13.20;98.30
37408;DHT22;24866;50.248;8.252;2023-04-05T15:46:51;12.70;28.10
37408;DHT22;24866;50.248;8.252;2023-04-05T15:49:21;12.90;46.30
37408;DHT22;24866;50.248;8.252;2023-04-05T15:51:51;12.70;17.70
37408;DHT22;24866;50.248;8.252;2023-04-05T15:54:21;12.90;18.10
37408;DHT22;24866;50.248;8.252;2023-04-05T15:56:54;13.40;65.40
37408;DHT22;24866;50.248;8.252;2023-04-05T15:59:25;13.50;57.80
37408;DHT22;24866;50.248;8.252;2023-04-05T16:01:55;13.30;27.50
37408;DHT22;24866;50.248;8.252;2023-04-05T16:04:26;13.90;92.30
37408;DHT22;24866;50.248;8.252;2023-04-05T16:06:56;14.40;99.90
37408;DHT22;24866;50.248;8.252;2023-04-05T16:09:26;13.50;17.30
37408;DHT22;24866;50.248;8.252;2023-04-05T16:11:59;13.30;1.30
37408;DHT22;24866;50.248;8.252;2023-04-05T16:14:29;13.30;1.00
37408;DHT22;24866;50.248;8.252;2023-04-05T16:17:00;13.30;1.00